Time;durP1;ratioP1;P1;durP2;ratioP2;P2;SDS_P1;SDS_P2;PMS_P1;PMS_P2;Temp;Humidity;BMP_temperature;BMP_pressure;BME280_temperature;BME280_humidity;BME280_pressure;Samples;Min_cycle;Max_cycle;Signal;HPM_P1;HPM_P2
2022/02/21 00:00:09;;;;;;;0.8;0.8;;;;;;;8.95;55.54785;94423.21;;;;
2022/02/21 00:01:13;;;;;;;0.8;0.8;;;;;;;8.95;55.54785;94423.21;;;;
2022/02/21 00:02:14;;;;;;;0.8;0.8;;;;;;;8.95;55.54785;94423.21;;;;
2022/02/21 00:03:15;;;;;;;0.8;0.8;;;;;;;8.95;55.54785;94423.21;;;;
2022/02/21 00:04:16;;;;;;;0.8;0.8;;;;;;;8.95;55.54785;94423.21;;;;
2022/02/21 00:05:16;;;;;;;0.8;0.8;;;;;;;8.95;55.54785;94423.21;;;;
2022/02/21 00:06:19;;;;;;;0.8;0.8;;;;;;;8.95;55.54785;94423.21;;;;
2022/02/21 00:07:20;;;;;;;0.8;0.8;;;;;;;8.95;55.54785;94423.21;;;;
2022/02/21 00:08:20;;;;;;;1.15;1.15;;;;;;;8.96;55.36621;94411.39;;;;
2022/02/21 00:09:21;;;;;;;1.15;1.15;;;;;;;8.96;55.36621;94411.39;;;;
2022/02/21 00:10:21;;;;;;;1.15;1.15;;;;;;;8.96;55.36621;94411.39;;;;
2022/02/21 00:11:22;;;;;;;1.15;1.15;;;;;;;8.96;55.36621;94411.39;;;;
2022/02/21 00:12:22;;;;;;;1.15;1.15;;;;;;;8.96;55.36621;94411.39;;;;
2022/02/21 00:13:23;;;;;;;1.15;1.15;;;;;;;8.96;55.36621;94411.39;;;;
2022/02/21 00:14:23;;;;;;;1.15;1.15;;;;;;;8.96;55.36621;94411.39;;;;
2022/02/21 00:15:24;;;;;;;1.15;1.15;;;;;;;8.96;55.36621;94411.39;;;;
2022/02/21 00:16:24;;;;;;;1.15;1.15;;;;;;;8.96;55.36621;94411.39;;;;
2022/02/21 00:17:25;;;;;;;1.15;1.15;;;;;;;8.96;55.36621;94411.39;;;;
2022/02/21 00:18:25;;;;;;;1.15;1.15;;;;;;;8.96;55.36621;94411.39;;;;
2022/02/21 00:19:27;;;;;;;1.05;0.95;;;;;;;8.93;55.40625;94382.25;;;;
2022/02/21 00:20:27;;;;;;;1.05;0.95;;;;;;;8.93;55.40625;94382.25;;;;
2022/02/21 00:21:29;;;;;;;1.05;0.95;;;;;;;8.93;55.40625;94382.25;;;;
2022/02/21 00:22:30;;;;;;;1.05;0.95;;;;;;;8.93;55.40625;94382.25;;;;
2022/02/21 00:23:30;;;;;;;1.05;0.95;;;;;;;8.93;55.40625;94382.25;;;;
2022/02/21 00:24:31;;;;;;;1.05;0.95;;;;;;;8.93;55.40625;94382.25;;;;
2022/02/21 00:25:31;;;;;;;1.05;0.95;;;;;;;8.93;55.40625;94382.25;;;;
2022/02/21 00:26:32;;;;;;;1.05;0.95;;;;;;;8.93;55.40625;94382.25;;;;
2022/02/21 00:27:33;;;;;;;1.05;0.95;;;;;;;8.93;55.40625;94382.25;;;;
2022/02/21 00:28:33;;;;;;;1.05;0.95;;;;;;;8.93;55.40625;94382.25;;;;
2022/02/21 00:29:34;;;;;;;0.8;0.8;;;;;;;8.83;55.47852;94342.16;;;;
2022/02/21 00:30:34;;;;;;;0.8;0.8;;;;;;;8.83;55.47852;94342.16;;;;
2022/02/21 00:31:35;;;;;;;0.8;0.8;;;;;;;8.83;55.47852;94342.16;;;;
2022/02/21 00:32:35;;;;;;;0.8;0.8;;;;;;;8.83;55.47852;94342.16;;;;
2022/02/21 00:33:36;;;;;;;0.8;0.8;;;;;;;8.83;55.47852;94342.16;;;;
2022/02/21 00:34:36;;;;;;;0.8;0.8;;;;;;;8.83;55.47852;94342.16;;;;
2022/02/21 00:35:37;;;;;;;0.8;0.8;;;;;;;8.83;55.47852;94342.16;;;;
2022/02/21 00:36:38;;;;;;;0.8;0.8;;;;;;;8.83;55.47852;94342.16;;;;
2022/02/21 00:37:38;;;;;;;0.8;0.8;;;;;;;8.83;55.47852;94342.16;;;;
2022/02/21 00:38:39;;;;;;;0.8;0.8;;;;;;;8.83;55.47852;94342.16;;;;
2022/02/21 00:39:40;;;;;;;0.8;0.8;;;;;;;8.83;55.47852;94342.16;;;;
2022/02/21 00:40:41;;;;;;;0.9;0.9;;;;;;;8.7;55.66602;94307.92;;;;
2022/02/21 00:41:41;;;;;;;0.9;0.9;;;;;;;8.7;55.66602;94307.92;;;;
2022/02/21 00:42:42;;;;;;;0.9;0.9;;;;;;;8.7;55.66602;94307.92;;;;
2022/02/21 00:43:42;;;;;;;0.9;0.9;;;;;;;8.7;55.66602;94307.92;;;;
2022/02/21 00:44:43;;;;;;;0.9;0.9;;;;;;;8.7;55.66602;94307.92;;;;
2022/02/21 00:45:43;;;;;;;0.9;0.9;;;;;;;8.7;55.66602;94307.92;;;;
2022/02/21 00:46:44;;;;;;;0.9;0.9;;;;;;;8.7;55.66602;94307.92;;;;
2022/02/21 00:47:44;;;;;;;0.9;0.9;;;;;;;8.7;55.66602;94307.92;;;;
2022/02/21 00:48:45;;;;;;;0.9;0.9;;;;;;;8.7;55.66602;94307.92;;;;
2022/02/21 00:49:46;;;;;;;0.9;0.9;;;;;;;8.7;55.66602;94307.92;;;;
2022/02/21 00:50:46;;;;;;;0.9;0.9;;;;;;;8.7;55.66602;94307.92;;;;
2022/02/21 00:51:47;;;;;;;0.8;0.8;;;;;;;8.65;55.91504;94311.08;;;;
2022/02/21 00:52:49;;;;;;;0.8;0.8;;;;;;;8.65;55.91504;94311.08;;;;
2022/02/21 00:53:50;;;;;;;0.8;0.8;;;;;;;8.65;55.91504;94311.08;;;;
2022/02/21 00:54:50;;;;;;;0.8;0.8;;;;;;;8.65;55.91504;94311.08;;;;
2022/02/21 00:55:51;;;;;;;0.8;0.8;;;;;;;8.65;55.91504;94311.08;;;;
2022/02/21 00:56:51;;;;;;;0.8;0.8;;;;;;;8.65;55.91504;94311.08;;;;
2022/02/21 00:57:52;;;;;;;0.8;0.8;;;;;;;8.65;55.91504;94311.08;;;;
2022/02/21 00:58:53;;;;;;;0.8;0.8;;;;;;;8.65;55.91504;94311.08;;;;
2022/02/21 00:59:53;;;;;;;0.8;0.8;;;;;;;8.65;55.91504;94311.08;;;;
2022/02/21 01:00:54;;;;;;;0.8;0.8;;;;;;;8.65;55.91504;94311.08;;;;
2022/02/21 01:01:54;;;;;;;0.95;0.9;;;;;;;8.71;55.95605;94284.5;;;;
2022/02/21 01:02:54;;;;;;;0.95;0.9;;;;;;;8.71;55.95605;94284.5;;;;
2022/02/21 01:03:55;;;;;;;0.95;0.9;;;;;;;8.71;55.95605;94284.5;;;;
2022/02/21 01:04:56;;;;;;;0.95;0.9;;;;;;;8.71;55.95605;94284.5;;;;
2022/02/21 01:05:56;;;;;;;0.95;0.9;;;;;;;8.71;55.95605;94284.5;;;;
2022/02/21 01:06:57;;;;;;;0.95;0.9;;;;;;;8.71;55.95605;94284.5;;;;
2022/02/21 01:07:57;;;;;;;0.95;0.9;;;;;;;8.71;55.95605;94284.5;;;;
2022/02/21 01:08:58;;;;;;;0.95;0.9;;;;;;;8.71;55.95605;94284.5;;;;
2022/02/21 01:09:58;;;;;;;0.95;0.9;;;;;;;8.71;55.95605;94284.5;;;;
2022/02/21 01:10:59;;;;;;;0.95;0.9;;;;;;;8.71;55.95605;94284.5;;;;
2022/02/21 01:12:00;;;;;;;0.95;0.9;;;;;;;8.71;55.95605;94284.5;;;;
2022/02/21 01:13:00;;;;;;;0.8;0.8;;;;;;;8.91;55.73535;94263.23;;;;
2022/02/21 01:14:01;;;;;;;0.8;0.8;;;;;;;8.91;55.73535;94263.23;;;;
2022/02/21 01:15:02;;;;;;;0.8;0.8;;;;;;;8.91;55.73535;94263.23;;;;
2022/02/21 01:16:04;;;;;;;0.8;0.8;;;;;;;8.91;55.73535;94263.23;;;;
2022/02/21 01:17:05;;;;;;;0.8;0.8;;;;;;;8.91;55.73535;94263.23;;;;
2022/02/21 01:18:06;;;;;;;0.8;0.8;;;;;;;8.91;55.73535;94263.23;;;;
2022/02/21 01:19:07;;;;;;;0.8;0.8;;;;;;;8.91;55.73535;94263.23;;;;
2022/02/21 01:20:07;;;;;;;0.8;0.8;;;;;;;8.91;55.73535;94263.23;;;;
2022/02/21 01:21:09;;;;;;;0.8;0.8;;;;;;;8.91;55.73535;94263.23;;;;
2022/02/21 01:22:10;;;;;;;0.8;0.8;;;;;;;8.91;55.73535;94263.23;;;;
2022/02/21 01:23:10;;;;;;;1.4;0.9;;;;;;;9.2;55.18262;94215.78;;;;
2022/02/21 01:24:11;;;;;;;1.4;0.9;;;;;;;9.2;55.18262;94215.78;;;;
2022/02/21 01:25:12;;;;;;;1.4;0.9;;;;;;;9.2;55.18262;94215.78;;;;
2022/02/21 01:26:13;;;;;;;1.4;0.9;;;;;;;9.2;55.18262;94215.78;;;;
2022/02/21 01:27:14;;;;;;;1.4;0.9;;;;;;;9.2;55.18262;94215.78;;;;
2022/02/21 01:28:14;;;;;;;1.4;0.9;;;;;;;9.2;55.18262;94215.78;;;;
2022/02/21 01:29:15;;;;;;;1.4;0.9;;;;;;;9.2;55.18262;94215.78;;;;
2022/02/21 01:30:15;;;;;;;1.4;0.9;;;;;;;9.2;55.18262;94215.78;;;;
2022/02/21 01:31:16;;;;;;;1.4;0.9;;;;;;;9.2;55.18262;94215.78;;;;
2022/02/21 01:32:17;;;;;;;1.4;0.9;;;;;;;9.2;55.18262;94215.78;;;;
2022/02/21 01:33:19;;;;;;;1.4;0.9;;;;;;;9.2;55.18262;94215.78;;;;
2022/02/21 01:34:20;;;;;;;1.25;0.95;;;;;;;9.39;54.6709;94216.11;;;;
2022/02/21 01:35:21;;;;;;;1.25;0.95;;;;;;;9.39;54.6709;94216.11;;;;
2022/02/21 01:36:22;;;;;;;1.25;0.95;;;;;;;9.39;54.6709;94216.11;;;;
2022/02/21 01:37:22;;;;;;;1.25;0.95;;;;;;;9.39;54.6709;94216.11;;;;
2022/02/21 01:38:23;;;;;;;1.25;0.95;;;;;;;9.39;54.6709;94216.11;;;;
2022/02/21 01:39:23;;;;;;;1.25;0.95;;;;;;;9.39;54.6709;94216.11;;;;
2022/02/21 01:40:24;;;;;;;1.25;0.95;;;;;;;9.39;54.6709;94216.11;;;;
2022/02/21 01:41:25;;;;;;;1.25;0.95;;;;;;;9.39;54.6709;94216.11;;;;
2022/02/21 01:42:25;;;;;;;1.25;0.95;;;;;;;9.39;54.6709;94216.11;;;;
2022/02/21 01:43:26;;;;;;;1.25;0.95;;;;;;;9.39;54.6709;94216.11;;;;
2022/02/21 01:44:26;;;;;;;1.75;1.2;;;;;;;9.43;54.25684;94197.97;;;;
2022/02/21 01:45:37;;;;;;;1.75;1.2;;;;;;;9.43;54.25684;94197.97;;;;
2022/02/21 01:46:37;;;;;;;1.75;1.2;;;;;;;9.43;54.25684;94197.97;;;;
2022/02/21 01:47:39;;;;;;;1.75;1.2;;;;;;;9.43;54.25684;94197.97;;;;
2022/02/21 01:48:40;;;;;;;1.75;1.2;;;;;;;9.43;54.25684;94197.97;;;;
2022/02/21 01:49:40;;;;;;;1.75;1.2;;;;;;;9.43;54.25684;94197.97;;;;
2022/02/21 01:50:41;;;;;;;1.75;1.2;;;;;;;9.43;54.25684;94197.97;;;;
2022/02/21 01:51:42;;;;;;;1.75;1.2;;;;;;;9.43;54.25684;94197.97;;;;
2022/02/21 01:52:43;;;;;;;1.75;1.2;;;;;;;9.43;54.25684;94197.97;;;;
2022/02/21 01:53:43;;;;;;;1.75;1.2;;;;;;;9.43;54.25684;94197.97;;;;
2022/02/21 01:54:44;;;;;;;1.75;1.2;;;;;;;9.43;54.25684;94197.97;;;;
2022/02/21 01:55:45;;;;;;;2.85;1;;;;;;;9.46;53.98145;94175.78;;;;
2022/02/21 01:56:46;;;;;;;2.85;1;;;;;;;9.46;53.98145;94175.78;;;;
2022/02/21 01:57:48;;;;;;;2.85;1;;;;;;;9.46;53.98145;94175.78;;;;
2022/02/21 01:58:49;;;;;;;2.85;1;;;;;;;9.46;53.98145;94175.78;;;;
2022/02/21 01:59:50;;;;;;;2.85;1;;;;;;;9.46;53.98145;94175.78;;;;
2022/02/21 02:00:50;;;;;;;2.85;1;;;;;;;9.46;53.98145;94175.78;;;;
2022/02/21 02:01:51;;;;;;;2.85;1;;;;;;;9.46;53.98145;94175.78;;;;
2022/02/21 02:02:52;;;;;;;2.85;1;;;;;;;9.46;53.98145;94175.78;;;;
2022/02/21 02:03:53;;;;;;;2.85;1;;;;;;;9.46;53.98145;94175.78;;;;
2022/02/21 02:04:53;;;;;;;2.85;1;;;;;;;9.46;53.98145;94175.78;;;;
2022/02/21 02:05:54;;;;;;;3.4;1.1;;;;;;;9.54;53.64844;94131.8;;;;
2022/02/21 02:06:54;;;;;;;3.4;1.1;;;;;;;9.54;53.64844;94131.8;;;;
2022/02/21 02:07:55;;;;;;;3.4;1.1;;;;;;;9.54;53.64844;94131.8;;;;
2022/02/21 02:08:56;;;;;;;3.4;1.1;;;;;;;9.54;53.64844;94131.8;;;;
2022/02/21 02:09:57;;;;;;;3.4;1.1;;;;;;;9.54;53.64844;94131.8;;;;
2022/02/21 02:10:58;;;;;;;3.4;1.1;;;;;;;9.54;53.64844;94131.8;;;;
2022/02/21 02:11:59;;;;;;;3.4;1.1;;;;;;;9.54;53.64844;94131.8;;;;
2022/02/21 02:12:59;;;;;;;3.4;1.1;;;;;;;9.54;53.64844;94131.8;;;;
2022/02/21 02:14:00;;;;;;;3.4;1.1;;;;;;;9.54;53.64844;94131.8;;;;
2022/02/21 02:15:00;;;;;;;3.4;1.1;;;;;;;9.54;53.64844;94131.8;;;;
2022/02/21 02:16:01;;;;;;;3.4;1.1;;;;;;;9.54;53.64844;94131.8;;;;
2022/02/21 02:17:01;;;;;;;1.5;0.9;;;;;;;9.53;53.35645;94060.52;;;;
2022/02/21 02:18:04;;;;;;;1.5;0.9;;;;;;;9.53;53.35645;94060.52;;;;
2022/02/21 02:19:05;;;;;;;1.5;0.9;;;;;;;9.53;53.35645;94060.52;;;;
2022/02/21 02:20:05;;;;;;;1.5;0.9;;;;;;;9.53;53.35645;94060.52;;;;
2022/02/21 02:21:06;;;;;;;1.5;0.9;;;;;;;9.53;53.35645;94060.52;;;;
2022/02/21 02:22:07;;;;;;;1.5;0.9;;;;;;;9.53;53.35645;94060.52;;;;
2022/02/21 02:23:10;;;;;;;1.5;0.9;;;;;;;9.53;53.35645;94060.52;;;;
2022/02/21 02:24:11;;;;;;;1.5;0.9;;;;;;;9.53;53.35645;94060.52;;;;
2022/02/21 02:25:11;;;;;;;1.5;0.9;;;;;;;9.53;53.35645;94060.52;;;;
2022/02/21 02:26:12;;;;;;;1.5;0.9;;;;;;;9.53;53.35645;94060.52;;;;
2022/02/21 02:27:13;;;;;;;1.3;1;;;;;;;9.57;52.96387;94026.19;;;;
2022/02/21 02:28:15;;;;;;;1.3;1;;;;;;;9.57;52.96387;94026.19;;;;
2022/02/21 02:29:16;;;;;;;1.3;1;;;;;;;9.57;52.96387;94026.19;;;;
2022/02/21 02:30:16;;;;;;;1.3;1;;;;;;;9.57;52.96387;94026.19;;;;
2022/02/21 02:31:17;;;;;;;1.3;1;;;;;;;9.57;52.96387;94026.19;;;;
2022/02/21 02:32:18;;;;;;;1.3;1;;;;;;;9.57;52.96387;94026.19;;;;
2022/02/21 02:33:20;;;;;;;1.3;1;;;;;;;9.57;52.96387;94026.19;;;;
2022/02/21 02:34:20;;;;;;;1.3;1;;;;;;;9.57;52.96387;94026.19;;;;
2022/02/21 02:35:21;;;;;;;1.3;1;;;;;;;9.57;52.96387;94026.19;;;;
2022/02/21 02:36:22;;;;;;;1.3;1;;;;;;;9.57;52.96387;94026.19;;;;
2022/02/21 02:37:23;;;;;;;1.3;1;;;;;;;9.57;52.96387;94026.19;;;;
2022/02/21 02:38:25;;;;;;;2.15;0.85;;;;;;;9.66;52.50293;93995.92;;;;
2022/02/21 02:39:25;;;;;;;2.15;0.85;;;;;;;9.66;52.50293;93995.92;;;;
2022/02/21 02:40:27;;;;;;;2.15;0.85;;;;;;;9.66;52.50293;93995.92;;;;
2022/02/21 02:41:27;;;;;;;2.15;0.85;;;;;;;9.66;52.50293;93995.92;;;;
2022/02/21 02:42:28;;;;;;;2.15;0.85;;;;;;;9.66;52.50293;93995.92;;;;
2022/02/21 02:43:29;;;;;;;2.15;0.85;;;;;;;9.66;52.50293;93995.92;;;;
2022/02/21 02:44:29;;;;;;;2.15;0.85;;;;;;;9.66;52.50293;93995.92;;;;
2022/02/21 02:45:30;;;;;;;2.15;0.85;;;;;;;9.66;52.50293;93995.92;;;;
2022/02/21 02:46:30;;;;;;;2.15;0.85;;;;;;;9.66;52.50293;93995.92;;;;
2022/02/21 02:47:31;;;;;;;2.15;0.85;;;;;;;9.66;52.50293;93995.92;;;;
2022/02/21 02:48:31;;;;;;;1.2;1.1;;;;;;;9.83;51.82324;93977.69;;;;
2022/02/21 02:49:32;;;;;;;1.2;1.1;;;;;;;9.83;51.82324;93977.69;;;;
2022/02/21 02:50:33;;;;;;;1.2;1.1;;;;;;;9.83;51.82324;93977.69;;;;
2022/02/21 02:51:34;;;;;;;1.2;1.1;;;;;;;9.83;51.82324;93977.69;;;;
2022/02/21 02:52:35;;;;;;;1.2;1.1;;;;;;;9.83;51.82324;93977.69;;;;
2022/02/21 02:53:35;;;;;;;1.2;1.1;;;;;;;9.83;51.82324;93977.69;;;;
2022/02/21 02:54:36;;;;;;;1.2;1.1;;;;;;;9.83;51.82324;93977.69;;;;
2022/02/21 02:55:37;;;;;;;1.2;1.1;;;;;;;9.83;51.82324;93977.69;;;;
2022/02/21 02:56:37;;;;;;;1.2;1.1;;;;;;;9.83;51.82324;93977.69;;;;
2022/02/21 02:57:38;;;;;;;1.2;1.1;;;;;;;9.83;51.82324;93977.69;;;;
2022/02/21 02:58:39;;;;;;;1.2;1.1;;;;;;;9.83;51.82324;93977.69;;;;
2022/02/21 02:59:39;;;;;;;0.8;0.8;;;;;;;9.97;51.46387;93965.34;;;;
2022/02/21 03:00:40;;;;;;;0.8;0.8;;;;;;;9.97;51.46387;93965.34;;;;
2022/02/21 03:01:40;;;;;;;0.8;0.8;;;;;;;9.97;51.46387;93965.34;;;;
2022/02/21 03:02:41;;;;;;;0.8;0.8;;;;;;;9.97;51.46387;93965.34;;;;
2022/02/21 03:03:41;;;;;;;0.8;0.8;;;;;;;9.97;51.46387;93965.34;;;;
2022/02/21 03:04:42;;;;;;;0.8;0.8;;;;;;;9.97;51.46387;93965.34;;;;
2022/02/21 03:05:42;;;;;;;0.8;0.8;;;;;;;9.97;51.46387;93965.34;;;;
2022/02/21 03:06:43;;;;;;;0.8;0.8;;;;;;;9.97;51.46387;93965.34;;;;
2022/02/21 03:07:43;;;;;;;0.8;0.8;;;;;;;9.97;51.46387;93965.34;;;;
2022/02/21 03:08:44;;;;;;;0.8;0.8;;;;;;;9.97;51.46387;93965.34;;;;
2022/02/21 03:09:44;;;;;;;1;0.9;;;;;;;10;51.20996;93975.59;;;;
2022/02/21 03:10:45;;;;;;;1;0.9;;;;;;;10;51.20996;93975.59;;;;
2022/02/21 03:11:45;;;;;;;1;0.9;;;;;;;10;51.20996;93975.59;;;;
2022/02/21 03:12:46;;;;;;;1;0.9;;;;;;;10;51.20996;93975.59;;;;
2022/02/21 03:13:46;;;;;;;1;0.9;;;;;;;10;51.20996;93975.59;;;;
2022/02/21 03:14:47;;;;;;;1;0.9;;;;;;;10;51.20996;93975.59;;;;
2022/02/21 03:15:47;;;;;;;1;0.9;;;;;;;10;51.20996;93975.59;;;;
2022/02/21 03:16:48;;;;;;;1;0.9;;;;;;;10;51.20996;93975.59;;;;
2022/02/21 03:17:49;;;;;;;1;0.9;;;;;;;10;51.20996;93975.59;;;;
2022/02/21 03:18:49;;;;;;;1;0.9;;;;;;;10;51.20996;93975.59;;;;
2022/02/21 03:19:49;;;;;;;1;0.9;;;;;;;10;51.20996;93975.59;;;;
2022/02/21 03:20:50;;;;;;;1;0.9;;;;;;;10.05;50.89258;93963.08;;;;
2022/02/21 03:21:51;;;;;;;1;0.9;;;;;;;10.05;50.89258;93963.08;;;;
2022/02/21 03:22:52;;;;;;;1;0.9;;;;;;;10.05;50.89258;93963.08;;;;
2022/02/21 03:23:53;;;;;;;1;0.9;;;;;;;10.05;50.89258;93963.08;;;;
2022/02/21 03:24:53;;;;;;;1;0.9;;;;;;;10.05;50.89258;93963.08;;;;
2022/02/21 03:25:54;;;;;;;1;0.9;;;;;;;10.05;50.89258;93963.08;;;;
2022/02/21 03:26:54;;;;;;;1;0.9;;;;;;;10.05;50.89258;93963.08;;;;
2022/02/21 03:27:56;;;;;;;1;0.9;;;;;;;10.05;50.89258;93963.08;;;;
2022/02/21 03:28:56;;;;;;;1;0.9;;;;;;;10.05;50.89258;93963.08;;;;
2022/02/21 03:29:57;;;;;;;1;0.9;;;;;;;10.05;50.89258;93963.08;;;;
2022/02/21 03:30:57;;;;;;;1;0.9;;;;;;;10.05;50.89258;93963.08;;;;
2022/02/21 03:31:58;;;;;;;1.25;0.9;;;;;;;10.18;50.62793;93926.22;;;;
2022/02/21 03:33:00;;;;;;;1.25;0.9;;;;;;;10.18;50.62793;93926.22;;;;
2022/02/21 03:34:00;;;;;;;1.25;0.9;;;;;;;10.18;50.62793;93926.22;;;;
2022/02/21 03:35:01;;;;;;;1.25;0.9;;;;;;;10.18;50.62793;93926.22;;;;
2022/02/21 03:36:01;;;;;;;1.25;0.9;;;;;;;10.18;50.62793;93926.22;;;;
2022/02/21 03:37:02;;;;;;;1.25;0.9;;;;;;;10.18;50.62793;93926.22;;;;
2022/02/21 03:38:03;;;;;;;1.25;0.9;;;;;;;10.18;50.62793;93926.22;;;;
2022/02/21 03:39:04;;;;;;;1.25;0.9;;;;;;;10.18;50.62793;93926.22;;;;
2022/02/21 03:40:05;;;;;;;1.25;0.9;;;;;;;10.18;50.62793;93926.22;;;;
2022/02/21 03:41:07;;;;;;;1.25;0.9;;;;;;;10.18;50.62793;93926.22;;;;
2022/02/21 03:42:08;;;;;;;1.4;1.05;;;;;;;10.2;50.54297;93892.22;;;;
2022/02/21 03:43:08;;;;;;;1.4;1.05;;;;;;;10.2;50.54297;93892.22;;;;
2022/02/21 03:44:09;;;;;;;1.4;1.05;;;;;;;10.2;50.54297;93892.22;;;;
2022/02/21 03:45:10;;;;;;;1.4;1.05;;;;;;;10.2;50.54297;93892.22;;;;
2022/02/21 03:46:10;;;;;;;1.4;1.05;;;;;;;10.2;50.54297;93892.22;;;;
2022/02/21 03:47:11;;;;;;;1.4;1.05;;;;;;;10.2;50.54297;93892.22;;;;
2022/02/21 03:48:11;;;;;;;1.4;1.05;;;;;;;10.2;50.54297;93892.22;;;;
2022/02/21 03:49:13;;;;;;;1.4;1.05;;;;;;;10.2;50.54297;93892.22;;;;
2022/02/21 03:50:13;;;;;;;1.4;1.05;;;;;;;10.2;50.54297;93892.22;;;;
2022/02/21 03:51:14;;;;;;;1.4;1.05;;;;;;;10.2;50.54297;93892.22;;;;
2022/02/21 03:52:14;;;;;;;1.4;1.05;;;;;;;10.2;50.54297;93892.22;;;;
2022/02/21 03:53:15;;;;;;;1.1;0.9;;;;;;;10.13;50.55664;93877.63;;;;
2022/02/21 03:54:16;;;;;;;1.1;0.9;;;;;;;10.13;50.55664;93877.63;;;;
2022/02/21 03:55:16;;;;;;;1.1;0.9;;;;;;;10.13;50.55664;93877.63;;;;
2022/02/21 03:56:17;;;;;;;1.1;0.9;;;;;;;10.13;50.55664;93877.63;;;;
2022/02/21 03:57:18;;;;;;;1.1;0.9;;;;;;;10.13;50.55664;93877.63;;;;
2022/02/21 03:58:18;;;;;;;1.1;0.9;;;;;;;10.13;50.55664;93877.63;;;;
2022/02/21 03:59:19;;;;;;;1.1;0.9;;;;;;;10.13;50.55664;93877.63;;;;
2022/02/21 04:00:19;;;;;;;1.1;0.9;;;;;;;10.13;50.55664;93877.63;;;;
2022/02/21 04:01:20;;;;;;;1.1;0.9;;;;;;;10.13;50.55664;93877.63;;;;
2022/02/21 04:02:20;;;;;;;1.1;0.9;;;;;;;10.13;50.55664;93877.63;;;;
2022/02/21 04:03:21;;;;;;;1.4;0.95;;;;;;;10.08;50.59473;93888.92;;;;
2022/02/21 04:04:21;;;;;;;1.4;0.95;;;;;;;10.08;50.59473;93888.92;;;;
2022/02/21 04:05:22;;;;;;;1.4;0.95;;;;;;;10.08;50.59473;93888.92;;;;
2022/02/21 04:06:23;;;;;;;1.4;0.95;;;;;;;10.08;50.59473;93888.92;;;;
2022/02/21 04:07:23;;;;;;;1.4;0.95;;;;;;;10.08;50.59473;93888.92;;;;
2022/02/21 04:08:24;;;;;;;1.4;0.95;;;;;;;10.08;50.59473;93888.92;;;;
2022/02/21 04:09:24;;;;;;;1.4;0.95;;;;;;;10.08;50.59473;93888.92;;;;
2022/02/21 04:10:25;;;;;;;1.4;0.95;;;;;;;10.08;50.59473;93888.92;;;;
2022/02/21 04:11:25;;;;;;;1.4;0.95;;;;;;;10.08;50.59473;93888.92;;;;
2022/02/21 04:12:26;;;;;;;1.4;0.95;;;;;;;10.08;50.59473;93888.92;;;;
2022/02/21 04:13:27;;;;;;;1.4;0.95;;;;;;;10.08;50.59473;93888.92;;;;
2022/02/21 04:14:27;;;;;;;1.3;1.1;;;;;;;10.04;50.85742;93880.55;;;;
2022/02/21 04:15:28;;;;;;;1.3;1.1;;;;;;;10.04;50.85742;93880.55;;;;
2022/02/21 04:16:32;;;;;;;1.3;1.1;;;;;;;10.04;50.85742;93880.55;;;;
2022/02/21 04:17:32;;;;;;;1.3;1.1;;;;;;;10.04;50.85742;93880.55;;;;
2022/02/21 04:18:42;;;;;;;1.3;1.1;;;;;;;10.04;50.85742;93880.55;;;;
2022/02/21 04:19:42;;;;;;;1.3;1.1;;;;;;;10.04;50.85742;93880.55;;;;
2022/02/21 04:20:43;;;;;;;1.3;1.1;;;;;;;10.04;50.85742;93880.55;;;;
2022/02/21 04:21:43;;;;;;;1.3;1.1;;;;;;;10.04;50.85742;93880.55;;;;
2022/02/21 04:22:44;;;;;;;1.3;1.1;;;;;;;10.04;50.85742;93880.55;;;;
2022/02/21 04:23:45;;;;;;;1.3;1.1;;;;;;;10.04;50.85742;93880.55;;;;
2022/02/21 04:24:45;;;;;;;1.25;1.1;;;;;;;9.99;51.28223;93889.58;;;;
2022/02/21 04:25:46;;;;;;;1.25;1.1;;;;;;;9.99;51.28223;93889.58;;;;
2022/02/21 04:26:46;;;;;;;1.25;1.1;;;;;;;9.99;51.28223;93889.58;;;;
2022/02/21 04:27:47;;;;;;;1.25;1.1;;;;;;;9.99;51.28223;93889.58;;;;
2022/02/21 04:28:49;;;;;;;1.25;1.1;;;;;;;9.99;51.28223;93889.58;;;;
2022/02/21 04:29:50;;;;;;;1.25;1.1;;;;;;;9.99;51.28223;93889.58;;;;
2022/02/21 04:30:51;;;;;;;1.25;1.1;;;;;;;9.99;51.28223;93889.58;;;;
2022/02/21 04:31:51;;;;;;;1.25;1.1;;;;;;;9.99;51.28223;93889.58;;;;
2022/02/21 04:32:52;;;;;;;1.25;1.1;;;;;;;9.99;51.28223;93889.58;;;;
2022/02/21 04:33:54;;;;;;;1.25;1.1;;;;;;;9.99;51.28223;93889.58;;;;
2022/02/21 04:34:54;;;;;;;1.25;1.1;;;;;;;9.99;51.28223;93889.58;;;;
2022/02/21 04:35:56;;;;;;;2.55;0.95;;;;;;;9.76;51.94434;93897.19;;;;
2022/02/21 04:36:56;;;;;;;2.55;0.95;;;;;;;9.76;51.94434;93897.19;;;;
2022/02/21 04:37:57;;;;;;;2.55;0.95;;;;;;;9.76;51.94434;93897.19;;;;
2022/02/21 04:38:57;;;;;;;2.55;0.95;;;;;;;9.76;51.94434;93897.19;;;;
2022/02/21 04:39:58;;;;;;;2.55;0.95;;;;;;;9.76;51.94434;93897.19;;;;
2022/02/21 04:40:58;;;;;;;2.55;0.95;;;;;;;9.76;51.94434;93897.19;;;;
2022/02/21 04:41:59;;;;;;;2.55;0.95;;;;;;;9.76;51.94434;93897.19;;;;
2022/02/21 04:42:59;;;;;;;2.55;0.95;;;;;;;9.76;51.94434;93897.19;;;;
2022/02/21 04:44:00;;;;;;;2.55;0.95;;;;;;;9.76;51.94434;93897.19;;;;
2022/02/21 04:45:00;;;;;;;2.55;0.95;;;;;;;9.76;51.94434;93897.19;;;;
2022/02/21 04:46:01;;;;;;;1.1;0.8;;;;;;;9.46;52.76758;93887.66;;;;
2022/02/21 04:47:01;;;;;;;1.1;0.8;;;;;;;9.46;52.76758;93887.66;;;;
2022/02/21 04:48:02;;;;;;;1.1;0.8;;;;;;;9.46;52.76758;93887.66;;;;
2022/02/21 04:49:03;;;;;;;1.1;0.8;;;;;;;9.46;52.76758;93887.66;;;;
2022/02/21 04:50:04;;;;;;;1.1;0.8;;;;;;;9.46;52.76758;93887.66;;;;
2022/02/21 04:51:06;;;;;;;1.1;0.8;;;;;;;9.46;52.76758;93887.66;;;;
2022/02/21 04:52:07;;;;;;;1.1;0.8;;;;;;;9.46;52.76758;93887.66;;;;
2022/02/21 04:53:08;;;;;;;1.1;0.8;;;;;;;9.46;52.76758;93887.66;;;;
2022/02/21 04:54:08;;;;;;;1.1;0.8;;;;;;;9.46;52.76758;93887.66;;;;
2022/02/21 04:55:09;;;;;;;1.1;0.8;;;;;;;9.46;52.76758;93887.66;;;;
2022/02/21 04:56:12;;;;;;;1.1;0.8;;;;;;;9.46;52.76758;93887.66;;;;
2022/02/21 04:57:12;;;;;;;0.9;0.9;;;;;;;9.18;53.53906;93836.35;;;;
2022/02/21 04:58:13;;;;;;;0.9;0.9;;;;;;;9.18;53.53906;93836.35;;;;
2022/02/21 04:59:14;;;;;;;0.9;0.9;;;;;;;9.18;53.53906;93836.35;;;;
2022/02/21 05:00:14;;;;;;;0.9;0.9;;;;;;;9.18;53.53906;93836.35;;;;
2022/02/21 05:01:15;;;;;;;0.9;0.9;;;;;;;9.18;53.53906;93836.35;;;;
2022/02/21 05:02:16;;;;;;;0.9;0.9;;;;;;;9.18;53.53906;93836.35;;;;
2022/02/21 05:03:16;;;;;;;0.9;0.9;;;;;;;9.18;53.53906;93836.35;;;;
2022/02/21 05:04:17;;;;;;;0.9;0.9;;;;;;;9.18;53.53906;93836.35;;;;
2022/02/21 05:05:18;;;;;;;0.9;0.9;;;;;;;9.18;53.53906;93836.35;;;;
2022/02/21 05:06:19;;;;;;;0.9;0.9;;;;;;;9.18;53.53906;93836.35;;;;
2022/02/21 05:07:19;;;;;;;0.9;0.9;;;;;;;8.91;54.51367;93831.1;;;;
2022/02/21 05:08:20;;;;;;;0.9;0.9;;;;;;;8.91;54.51367;93831.1;;;;
2022/02/21 05:09:21;;;;;;;0.9;0.9;;;;;;;8.91;54.51367;93831.1;;;;
2022/02/21 05:10:21;;;;;;;0.9;0.9;;;;;;;8.91;54.51367;93831.1;;;;
2022/02/21 05:11:22;;;;;;;0.9;0.9;;;;;;;8.91;54.51367;93831.1;;;;
2022/02/21 05:12:22;;;;;;;0.9;0.9;;;;;;;8.91;54.51367;93831.1;;;;
2022/02/21 05:13:23;;;;;;;0.9;0.9;;;;;;;8.91;54.51367;93831.1;;;;
2022/02/21 05:14:24;;;;;;;0.9;0.9;;;;;;;8.91;54.51367;93831.1;;;;
2022/02/21 05:15:25;;;;;;;0.9;0.9;;;;;;;8.91;54.51367;93831.1;;;;
2022/02/21 05:16:26;;;;;;;0.9;0.9;;;;;;;8.91;54.51367;93831.1;;;;
2022/02/21 05:17:26;;;;;;;0.9;0.9;;;;;;;8.91;54.51367;93831.1;;;;
2022/02/21 05:18:27;;;;;;;1;0.9;;;;;;;8.63;55.30469;93808.61;;;;
2022/02/21 05:19:27;;;;;;;1;0.9;;;;;;;8.63;55.30469;93808.61;;;;
2022/02/21 05:20:28;;;;;;;1;0.9;;;;;;;8.63;55.30469;93808.61;;;;
2022/02/21 05:21:28;;;;;;;1;0.9;;;;;;;8.63;55.30469;93808.61;;;;
2022/02/21 05:22:29;;;;;;;1;0.9;;;;;;;8.63;55.30469;93808.61;;;;
2022/02/21 05:23:30;;;;;;;1;0.9;;;;;;;8.63;55.30469;93808.61;;;;
2022/02/21 05:24:31;;;;;;;1;0.9;;;;;;;8.63;55.30469;93808.61;;;;
2022/02/21 05:25:31;;;;;;;1;0.9;;;;;;;8.63;55.30469;93808.61;;;;
2022/02/21 05:26:32;;;;;;;1;0.9;;;;;;;8.63;55.30469;93808.61;;;;
2022/02/21 05:27:32;;;;;;;1;0.9;;;;;;;8.63;55.30469;93808.61;;;;
2022/02/21 05:28:33;;;;;;;0.7;0.7;;;;;;;8.41;56.57129;93798.1;;;;
2022/02/21 05:29:34;;;;;;;0.7;0.7;;;;;;;8.41;56.57129;93798.1;;;;
2022/02/21 05:30:34;;;;;;;0.7;0.7;;;;;;;8.41;56.57129;93798.1;;;;
2022/02/21 05:31:35;;;;;;;0.7;0.7;;;;;;;8.41;56.57129;93798.1;;;;
2022/02/21 05:32:35;;;;;;;0.7;0.7;;;;;;;8.41;56.57129;93798.1;;;;
2022/02/21 05:33:36;;;;;;;0.7;0.7;;;;;;;8.41;56.57129;93798.1;;;;
2022/02/21 05:34:36;;;;;;;0.7;0.7;;;;;;;8.41;56.57129;93798.1;;;;
2022/02/21 05:35:37;;;;;;;0.7;0.7;;;;;;;8.41;56.57129;93798.1;;;;
2022/02/21 05:36:37;;;;;;;0.7;0.7;;;;;;;8.41;56.57129;93798.1;;;;
2022/02/21 05:37:38;;;;;;;0.7;0.7;;;;;;;8.41;56.57129;93798.1;;;;
2022/02/21 05:38:38;;;;;;;0.7;0.7;;;;;;;8.41;56.57129;93798.1;;;;
2022/02/21 05:39:39;;;;;;;1;0.8;;;;;;;8.26;57.50195;93780.5;;;;
2022/02/21 05:40:39;;;;;;;1;0.8;;;;;;;8.26;57.50195;93780.5;;;;
2022/02/21 05:41:40;;;;;;;1;0.8;;;;;;;8.26;57.50195;93780.5;;;;
2022/02/21 05:42:40;;;;;;;1;0.8;;;;;;;8.26;57.50195;93780.5;;;;
2022/02/21 05:43:41;;;;;;;1;0.8;;;;;;;8.26;57.50195;93780.5;;;;
2022/02/21 05:44:42;;;;;;;1;0.8;;;;;;;8.26;57.50195;93780.5;;;;
2022/02/21 05:45:42;;;;;;;1;0.8;;;;;;;8.26;57.50195;93780.5;;;;
2022/02/21 05:46:43;;;;;;;1;0.8;;;;;;;8.26;57.50195;93780.5;;;;
2022/02/21 05:47:43;;;;;;;1;0.8;;;;;;;8.26;57.50195;93780.5;;;;
2022/02/21 05:48:44;;;;;;;1;0.8;;;;;;;8.26;57.50195;93780.5;;;;
2022/02/21 05:49:44;;;;;;;1;0.8;;;;;;;8.26;57.50195;93780.5;;;;
2022/02/21 05:50:45;;;;;;;1;0.9;;;;;;;8.25;57.92969;93791.82;;;;
2022/02/21 05:51:45;;;;;;;1;0.9;;;;;;;8.25;57.92969;93791.82;;;;
2022/02/21 05:52:46;;;;;;;1;0.9;;;;;;;8.25;57.92969;93791.82;;;;
2022/02/21 05:53:47;;;;;;;1;0.9;;;;;;;8.25;57.92969;93791.82;;;;
2022/02/21 05:54:48;;;;;;;1;0.9;;;;;;;8.25;57.92969;93791.82;;;;
2022/02/21 05:55:48;;;;;;;1;0.9;;;;;;;8.25;57.92969;93791.82;;;;
2022/02/21 05:56:49;;;;;;;1;0.9;;;;;;;8.25;57.92969;93791.82;;;;
2022/02/21 05:57:50;;;;;;;1;0.9;;;;;;;8.25;57.92969;93791.82;;;;
2022/02/21 05:58:55;;;;;;;1;0.9;;;;;;;8.25;57.92969;93791.82;;;;